sensor_id;sensor_type;location;lat;lon;timestamp;P1;durP1;ratioP1;P2;durP2;ratioP2
45434;SDS011;31183;47.404;8.500;2023-05-24T00:02:06;16.27;;;14.48;;
45434;SDS011;31183;47.404;8.500;2023-05-24T00:04:33;16.45;;;14.77;;
45434;SDS011;31183;47.404;8.500;2023-05-24T00:07:00;16.40;;;14.45;;
45434;SDS011;31183;47.404;8.500;2023-05-24T00:09:29;16.38;;;14.68;;
45434;SDS011;31183;47.404;8.500;2023-05-24T00:11:56;14.63;;;12.88;;
45434;SDS011;31183;47.404;8.500;2023-05-24T00:14:23;18.05;;;15.80;;
45434;SDS011;31183;47.404;8.500;2023-05-24T00:16:50;17.63;;;14.70;;
45434;SDS011;31183;47.404;8.500;2023-05-24T00:19:17;16.60;;;14.82;;
45434;SDS011;31183;47.404;8.500;2023-05-24T00:21:47;18.20;;;15.93;;
45434;SDS011;31183;47.404;8.500;2023-05-24T00:24:14;13.55;;;12.13;;
45434;SDS011;31183;47.404;8.500;2023-05-24T00:26:42;15.60;;;14.07;;
45434;SDS011;31183;47.404;8.500;2023-05-24T00:29:09;14.98;;;13.50;;
45434;SDS011;31183;47.404;8.500;2023-05-24T00:31:36;16.73;;;14.93;;
45434;SDS011;31183;47.404;8.500;2023-05-24T00:34:02;15.85;;;14.18;;
45434;SDS011;31183;47.404;8.500;2023-05-24T00:36:29;17.45;;;14.68;;
45434;SDS011;31183;47.404;8.500;2023-05-24T00:38:56;18.73;;;14.82;;
45434;SDS011;31183;47.404;8.500;2023-05-24T00:41:22;18.08;;;15.40;;
45434;SDS011;31183;47.404;8.500;2023-05-24T00:43:49;17.50;;;14.15;;
45434;SDS011;31183;47.404;8.500;2023-05-24T00:46:20;17.67;;;15.10;;
45434;SDS011;31183;47.404;8.500;2023-05-24T00:48:50;15.70;;;13.95;;
45434;SDS011;31183;47.404;8.500;2023-05-24T00:51:17;15.38;;;13.77;;
45434;SDS011;31183;47.404;8.500;2023-05-24T00:53:45;19.65;;;16.42;;
45434;SDS011;31183;47.404;8.500;2023-05-24T00:56:13;19.77;;;16.55;;
45434;SDS011;31183;47.404;8.500;2023-05-24T00:58:41;18.13;;;14.13;;
45434;SDS011;31183;47.404;8.500;2023-05-24T01:01:08;18.25;;;15.18;;
45434;SDS011;31183;47.404;8.500;2023-05-24T01:03:35;16.55;;;14.85;;
45434;SDS011;31183;47.404;8.500;2023-05-24T01:06:02;19.33;;;15.93;;
45434;SDS011;31183;47.404;8.500;2023-05-24T01:11:05;18.42;;;16.33;;
45434;SDS011;31183;47.404;8.500;2023-05-24T01:14:11;18.13;;;16.10;;
45434;SDS011;31183;47.404;8.500;2023-05-24T01:17:18;18.08;;;16.17;;
45434;SDS011;31183;47.404;8.500;2023-05-24T01:19:53;18.50;;;15.60;;
45434;SDS011;31183;47.404;8.500;2023-05-24T01:25:31;19.92;;;16.17;;
45434;SDS011;31183;47.404;8.500;2023-05-24T01:28:07;18.85;;;16.73;;
45434;SDS011;31183;47.404;8.500;2023-05-24T01:30:36;18.00;;;16.23;;
45434;SDS011;31183;47.404;8.500;2023-05-24T01:33:06;18.20;;;16.10;;
45434;SDS011;31183;47.404;8.500;2023-05-24T01:35:34;19.77;;;17.10;;
45434;SDS011;31183;47.404;8.500;2023-05-24T01:38:05;19.75;;;17.00;;
45434;SDS011;31183;47.404;8.500;2023-05-24T01:40:32;17.63;;;15.82;;
45434;SDS011;31183;47.404;8.500;2023-05-24T01:43:04;17.52;;;15.68;;
45434;SDS011;31183;47.404;8.500;2023-05-24T01:48:27;16.15;;;14.52;;
45434;SDS011;31183;47.404;8.500;2023-05-24T01:51:00;18.10;;;16.27;;
45434;SDS011;31183;47.404;8.500;2023-05-24T01:53:33;18.80;;;15.48;;
45434;SDS011;31183;47.404;8.500;2023-05-24T01:56:02;18.98;;;16.77;;
45434;SDS011;31183;47.404;8.500;2023-05-24T01:58:31;19.80;;;17.50;;
45434;SDS011;31183;47.404;8.500;2023-05-24T02:00:59;22.17;;;15.45;;
45434;SDS011;31183;47.404;8.500;2023-05-24T02:03:27;19.20;;;17.23;;
45434;SDS011;31183;47.404;8.500;2023-05-24T02:05:54;16.95;;;15.15;;
45434;SDS011;31183;47.404;8.500;2023-05-24T02:08:20;17.13;;;15.20;;
45434;SDS011;31183;47.404;8.500;2023-05-24T02:10:48;18.35;;;14.93;;
45434;SDS011;31183;47.404;8.500;2023-05-24T02:13:14;19.35;;;17.25;;
45434;SDS011;31183;47.404;8.500;2023-05-24T02:15:43;20.52;;;18.17;;
45434;SDS011;31183;47.404;8.500;2023-05-24T02:18:09;18.98;;;16.92;;
45434;SDS011;31183;47.404;8.500;2023-05-24T02:20:38;20.48;;;18.25;;
45434;SDS011;31183;47.404;8.500;2023-05-24T02:23:05;20.98;;;16.08;;
45434;SDS011;31183;47.404;8.500;2023-05-24T02:25:32;19.35;;;16.48;;
45434;SDS011;31183;47.404;8.500;2023-05-24T02:27:59;17.48;;;15.73;;
45434;SDS011;31183;47.404;8.500;2023-05-24T02:30:25;18.52;;;16.23;;
45434;SDS011;31183;47.404;8.500;2023-05-24T02:32:52;20.25;;;17.92;;
45434;SDS011;31183;47.404;8.500;2023-05-24T02:35:19;19.63;;;17.50;;
45434;SDS011;31183;47.404;8.500;2023-05-24T02:37:46;19.15;;;17.05;;
45434;SDS011;31183;47.404;8.500;2023-05-24T02:40:13;22.73;;;18.15;;
45434;SDS011;31183;47.404;8.500;2023-05-24T02:42:39;20.73;;;18.52;;
45434;SDS011;31183;47.404;8.500;2023-05-24T02:45:06;22.50;;;18.02;;
45434;SDS011;31183;47.404;8.500;2023-05-24T02:47:33;19.27;;;16.20;;
45434;SDS011;31183;47.404;8.500;2023-05-24T02:50:00;19.90;;;16.48;;
45434;SDS011;31183;47.404;8.500;2023-05-24T02:52:26;18.85;;;16.90;;
45434;SDS011;31183;47.404;8.500;2023-05-24T02:54:53;20.42;;;17.92;;
45434;SDS011;31183;47.404;8.500;2023-05-24T02:57:19;22.90;;;18.23;;
45434;SDS011;31183;47.404;8.500;2023-05-24T02:59:46;19.35;;;16.25;;
45434;SDS011;31183;47.404;8.500;2023-05-24T03:02:13;21.17;;;18.52;;
45434;SDS011;31183;47.404;8.500;2023-05-24T03:04:40;21.80;;;17.90;;
45434;SDS011;31183;47.404;8.500;2023-05-24T03:07:07;18.83;;;16.70;;
45434;SDS011;31183;47.404;8.500;2023-05-24T03:09:33;21.02;;;16.85;;
45434;SDS011;31183;47.404;8.500;2023-05-24T03:12:00;20.80;;;18.52;;
45434;SDS011;31183;47.404;8.500;2023-05-24T03:14:27;19.02;;;16.92;;
45434;SDS011;31183;47.404;8.500;2023-05-24T03:16:53;21.45;;;17.33;;
45434;SDS011;31183;47.404;8.500;2023-05-24T03:19:20;18.80;;;16.70;;
45434;SDS011;31183;47.404;8.500;2023-05-24T03:21:47;21.33;;;17.48;;
45434;SDS011;31183;47.404;8.500;2023-05-24T03:24:13;21.85;;;17.90;;
45434;SDS011;31183;47.404;8.500;2023-05-24T03:26:40;20.90;;;17.65;;
45434;SDS011;31183;47.404;8.500;2023-05-24T03:29:07;19.27;;;16.42;;
45434;SDS011;31183;47.404;8.500;2023-05-24T03:31:33;20.48;;;18.38;;
45434;SDS011;31183;47.404;8.500;2023-05-24T03:34:00;20.88;;;17.48;;
45434;SDS011;31183;47.404;8.500;2023-05-24T03:36:27;19.25;;;17.13;;
45434;SDS011;31183;47.404;8.500;2023-05-24T03:38:54;22.55;;;17.67;;
45434;SDS011;31183;47.404;8.500;2023-05-24T03:41:23;19.52;;;16.95;;
45434;SDS011;31183;47.404;8.500;2023-05-24T03:43:52;20.90;;;17.98;;
45434;SDS011;31183;47.404;8.500;2023-05-24T03:46:19;24.13;;;19.48;;
45434;SDS011;31183;47.404;8.500;2023-05-24T03:48:46;21.63;;;19.42;;
45434;SDS011;31183;47.404;8.500;2023-05-24T03:51:14;21.00;;;18.23;;
45434;SDS011;31183;47.404;8.500;2023-05-24T03:53:40;23.58;;;18.60;;
45434;SDS011;31183;47.404;8.500;2023-05-24T03:56:07;20.55;;;18.23;;
45434;SDS011;31183;47.404;8.500;2023-05-24T03:58:34;20.92;;;18.73;;
45434;SDS011;31183;47.404;8.500;2023-05-24T04:01:01;22.75;;;19.02;;
45434;SDS011;31183;47.404;8.500;2023-05-24T04:03:27;21.90;;;18.92;;
45434;SDS011;31183;47.404;8.500;2023-05-24T04:05:54;24.17;;;17.90;;
45434;SDS011;31183;47.404;8.500;2023-05-24T04:08:21;21.95;;;19.08;;
45434;SDS011;31183;47.404;8.500;2023-05-24T04:10:47;21.27;;;16.88;;
45434;SDS011;31183;47.404;8.500;2023-05-24T04:13:14;19.70;;;16.58;;
45434;SDS011;31183;47.404;8.500;2023-05-24T04:15:41;21.48;;;16.45;;
45434;SDS011;31183;47.404;8.500;2023-05-24T04:18:08;21.08;;;17.50;;
45434;SDS011;31183;47.404;8.500;2023-05-24T04:20:35;18.77;;;16.27;;
45434;SDS011;31183;47.404;8.500;2023-05-24T04:23:02;19.60;;;15.98;;
45434;SDS011;31183;47.404;8.500;2023-05-24T04:25:28;18.02;;;15.80;;
45434;SDS011;31183;47.404;8.500;2023-05-24T04:27:55;19.38;;;17.02;;
45434;SDS011;31183;47.404;8.500;2023-05-24T04:30:22;18.73;;;16.73;;
45434;SDS011;31183;47.404;8.500;2023-05-24T04:32:48;19.55;;;17.17;;
45434;SDS011;31183;47.404;8.500;2023-05-24T04:35:16;20.80;;;16.38;;
45434;SDS011;31183;47.404;8.500;2023-05-24T04:37:43;19.08;;;17.05;;
45434;SDS011;31183;47.404;8.500;2023-05-24T04:40:10;21.85;;;17.60;;
45434;SDS011;31183;47.404;8.500;2023-05-24T04:42:37;17.55;;;15.75;;
45434;SDS011;31183;47.404;8.500;2023-05-24T04:45:04;23.00;;;17.25;;
45434;SDS011;31183;47.404;8.500;2023-05-24T04:47:32;19.63;;;17.65;;
45434;SDS011;31183;47.404;8.500;2023-05-24T04:49:58;18.27;;;16.38;;
45434;SDS011;31183;47.404;8.500;2023-05-24T04:52:25;18.83;;;16.40;;
45434;SDS011;31183;47.404;8.500;2023-05-24T04:54:52;19.25;;;16.02;;
45434;SDS011;31183;47.404;8.500;2023-05-24T04:57:20;19.98;;;17.80;;
45434;SDS011;31183;47.404;8.500;2023-05-24T04:59:47;19.05;;;16.30;;
45434;SDS011;31183;47.404;8.500;2023-05-24T05:02:13;19.35;;;15.95;;
45434;SDS011;31183;47.404;8.500;2023-05-24T05:04:40;17.92;;;16.02;;
45434;SDS011;31183;47.404;8.500;2023-05-24T05:07:07;19.30;;;17.10;;
45434;SDS011;31183;47.404;8.500;2023-05-24T05:09:33;19.48;;;17.48;;
45434;SDS011;31183;47.404;8.500;2023-05-24T05:12:00;17.83;;;15.13;;
45434;SDS011;31183;47.404;8.500;2023-05-24T05:14:27;19.08;;;16.48;;
45434;SDS011;31183;47.404;8.500;2023-05-24T05:16:54;22.80;;;17.83;;
45434;SDS011;31183;47.404;8.500;2023-05-24T05:19:22;16.42;;;14.45;;
45434;SDS011;31183;47.404;8.500;2023-05-24T05:21:49;20.38;;;16.70;;
45434;SDS011;31183;47.404;8.500;2023-05-24T05:24:17;16.63;;;14.93;;
45434;SDS011;31183;47.404;8.500;2023-05-24T05:26:44;17.60;;;15.80;;
45434;SDS011;31183;47.404;8.500;2023-05-24T05:29:10;16.95;;;14.45;;
45434;SDS011;31183;47.404;8.500;2023-05-24T05:31:37;18.52;;;16.67;;
45434;SDS011;31183;47.404;8.500;2023-05-24T05:34:04;18.25;;;16.40;;
45434;SDS011;31183;47.404;8.500;2023-05-24T05:36:34;18.60;;;15.67;;
45434;SDS011;31183;47.404;8.500;2023-05-24T05:39:06;17.52;;;14.50;;
45434;SDS011;31183;47.404;8.500;2023-05-24T05:41:37;16.73;;;14.68;;
45434;SDS011;31183;47.404;8.500;2023-05-24T05:44:04;17.70;;;15.05;;
45434;SDS011;31183;47.404;8.500;2023-05-24T05:46:31;18.33;;;16.17;;
45434;SDS011;31183;47.404;8.500;2023-05-24T05:48:58;16.90;;;15.00;;
45434;SDS011;31183;47.404;8.500;2023-05-24T05:51:25;17.42;;;15.55;;
45434;SDS011;31183;47.404;8.500;2023-05-24T05:53:51;16.73;;;13.32;;
45434;SDS011;31183;47.404;8.500;2023-05-24T05:56:18;17.85;;;16.15;;
45434;SDS011;31183;47.404;8.500;2023-05-24T05:58:45;17.42;;;14.93;;
45434;SDS011;31183;47.404;8.500;2023-05-24T06:01:11;15.48;;;13.85;;
45434;SDS011;31183;47.404;8.500;2023-05-24T06:03:39;18.08;;;16.17;;
45434;SDS011;31183;47.404;8.500;2023-05-24T06:06:06;17.50;;;15.70;;
45434;SDS011;31183;47.404;8.500;2023-05-24T06:08:33;17.13;;;14.77;;
45434;SDS011;31183;47.404;8.500;2023-05-24T06:11:00;16.17;;;14.63;;
45434;SDS011;31183;47.404;8.500;2023-05-24T06:13:27;18.98;;;15.45;;
45434;SDS011;31183;47.404;8.500;2023-05-24T06:15:53;17.17;;;15.05;;
45434;SDS011;31183;47.404;8.500;2023-05-24T06:18:20;16.88;;;15.05;;
45434;SDS011;31183;47.404;8.500;2023-05-24T06:20:47;14.45;;;13.10;;
45434;SDS011;31183;47.404;8.500;2023-05-24T06:23:14;17.77;;;14.60;;
45434;SDS011;31183;47.404;8.500;2023-05-24T06:25:41;16.95;;;14.27;;
45434;SDS011;31183;47.404;8.500;2023-05-24T06:28:09;15.90;;;14.35;;
45434;SDS011;31183;47.404;8.500;2023-05-24T06:30:35;15.63;;;14.00;;
45434;SDS011;31183;47.404;8.500;2023-05-24T06:33:02;14.52;;;12.98;;
45434;SDS011;31183;47.404;8.500;2023-05-24T06:35:29;15.32;;;13.73;;
45434;SDS011;31183;47.404;8.500;2023-05-24T06:37:56;16.33;;;14.73;;
45434;SDS011;31183;47.404;8.500;2023-05-24T06:40:23;14.80;;;13.27;;
45434;SDS011;31183;47.404;8.500;2023-05-24T06:42:49;14.23;;;12.82;;
45434;SDS011;31183;47.404;8.500;2023-05-24T06:45:16;15.10;;;13.60;;
45434;SDS011;31183;47.404;8.500;2023-05-24T06:47:43;14.05;;;12.55;;
45434;SDS011;31183;47.404;8.500;2023-05-24T06:50:09;12.45;;;11.25;;
45434;SDS011;31183;47.404;8.500;2023-05-24T06:52:36;13.82;;;12.40;;
45434;SDS011;31183;47.404;8.500;2023-05-24T06:55:03;15.55;;;11.68;;
45434;SDS011;31183;47.404;8.500;2023-05-24T06:57:30;12.32;;;10.75;;
45434;SDS011;31183;47.404;8.500;2023-05-24T06:59:56;11.52;;;10.32;;
45434;SDS011;31183;47.404;8.500;2023-05-24T07:02:23;14.00;;;11.38;;
45434;SDS011;31183;47.404;8.500;2023-05-24T07:04:52;20.05;;;12.77;;
45434;SDS011;31183;47.404;8.500;2023-05-24T07:07:19;12.85;;;10.95;;
45434;SDS011;31183;47.404;8.500;2023-05-24T07:09:46;11.40;;;10.02;;
45434;SDS011;31183;47.404;8.500;2023-05-24T07:12:13;11.88;;;10.68;;
45434;SDS011;31183;47.404;8.500;2023-05-24T07:14:40;10.85;;;9.85;;
45434;SDS011;31183;47.404;8.500;2023-05-24T07:17:06;11.35;;;10.27;;
45434;SDS011;31183;47.404;8.500;2023-05-24T07:19:33;10.48;;;9.38;;
45434;SDS011;31183;47.404;8.500;2023-05-24T07:22:01;9.93;;;9.00;;
45434;SDS011;31183;47.404;8.500;2023-05-24T07:24:27;13.05;;;11.30;;
45434;SDS011;31183;47.404;8.500;2023-05-24T07:26:54;11.32;;;10.20;;
45434;SDS011;31183;47.404;8.500;2023-05-24T07:29:22;10.50;;;9.50;;
45434;SDS011;31183;47.404;8.500;2023-05-24T07:31:49;10.57;;;9.57;;
45434;SDS011;31183;47.404;8.500;2023-05-24T07:34:17;10.45;;;9.50;;
45434;SDS011;31183;47.404;8.500;2023-05-24T07:36:46;11.80;;;9.80;;
45434;SDS011;31183;47.404;8.500;2023-05-24T07:39:14;12.63;;;11.00;;
45434;SDS011;31183;47.404;8.500;2023-05-24T07:41:41;10.27;;;9.27;;
45434;SDS011;31183;47.404;8.500;2023-05-24T07:44:08;13.48;;;12.07;;
45434;SDS011;31183;47.404;8.500;2023-05-24T07:46:34;11.57;;;10.48;;
45434;SDS011;31183;47.404;8.500;2023-05-24T07:49:02;11.05;;;9.93;;
45434;SDS011;31183;47.404;8.500;2023-05-24T07:51:29;12.13;;;10.27;;
45434;SDS011;31183;47.404;8.500;2023-05-24T07:53:57;11.70;;;10.50;;
45434;SDS011;31183;47.404;8.500;2023-05-24T07:56:24;10.48;;;9.43;;
45434;SDS011;31183;47.404;8.500;2023-05-24T07:58:51;14.05;;;12.35;;
45434;SDS011;31183;47.404;8.500;2023-05-24T08:01:21;14.27;;;10.88;;
45434;SDS011;31183;47.404;8.500;2023-05-24T08:03:48;12.60;;;11.30;;
45434;SDS011;31183;47.404;8.500;2023-05-24T08:06:15;12.43;;;11.20;;
45434;SDS011;31183;47.404;8.500;2023-05-24T08:08:43;12.48;;;11.15;;
45434;SDS011;31183;47.404;8.500;2023-05-24T08:11:10;12.52;;;11.18;;
45434;SDS011;31183;47.404;8.500;2023-05-24T08:13:37;12.60;;;11.15;;
45434;SDS011;31183;47.404;8.500;2023-05-24T08:16:04;11.73;;;10.50;;
45434;SDS011;31183;47.404;8.500;2023-05-24T08:18:31;12.10;;;10.93;;
45434;SDS011;31183;47.404;8.500;2023-05-24T08:20:58;12.45;;;11.18;;
45434;SDS011;31183;47.404;8.500;2023-05-24T08:23:25;13.20;;;10.93;;
45434;SDS011;31183;47.404;8.500;2023-05-24T08:25:52;11.48;;;10.13;;
45434;SDS011;31183;47.404;8.500;2023-05-24T08:28:19;13.15;;;11.38;;
45434;SDS011;31183;47.404;8.500;2023-05-24T08:30:46;13.88;;;11.88;;
45434;SDS011;31183;47.404;8.500;2023-05-24T08:33:13;12.57;;;11.20;;
45434;SDS011;31183;47.404;8.500;2023-05-24T08:35:40;11.55;;;10.35;;
45434;SDS011;31183;47.404;8.500;2023-05-24T08:38:07;12.50;;;9.95;;
45434;SDS011;31183;47.404;8.500;2023-05-24T08:40:34;12.32;;;10.80;;
45434;SDS011;31183;47.404;8.500;2023-05-24T08:43:00;15.85;;;10.95;;
45434;SDS011;31183;47.404;8.500;2023-05-24T08:45:31;15.30;;;11.25;;
45434;SDS011;31183;47.404;8.500;2023-05-24T08:47:59;13.57;;;10.90;;
45434;SDS011;31183;47.404;8.500;2023-05-24T08:50:26;14.10;;;9.95;;
45434;SDS011;31183;47.404;8.500;2023-05-24T08:52:54;11.80;;;10.18;;
45434;SDS011;31183;47.404;8.500;2023-05-24T08:55:22;11.90;;;10.68;;
45434;SDS011;31183;47.404;8.500;2023-05-24T08:57:50;12.20;;;10.07;;
45434;SDS011;31183;47.404;8.500;2023-05-24T09:00:17;13.32;;;10.18;;
45434;SDS011;31183;47.404;8.500;2023-05-24T09:02:44;14.77;;;10.05;;
45434;SDS011;31183;47.404;8.500;2023-05-24T09:05:13;12.73;;;10.32;;
45434;SDS011;31183;47.404;8.500;2023-05-24T09:07:47;10.80;;;9.70;;
45434;SDS011;31183;47.404;8.500;2023-05-24T09:10:15;10.60;;;9.50;;
45434;SDS011;31183;47.404;8.500;2023-05-24T09:12:47;13.13;;;10.20;;
45434;SDS011;31183;47.404;8.500;2023-05-24T09:15:22;13.75;;;10.05;;
45434;SDS011;31183;47.404;8.500;2023-05-24T09:17:49;11.60;;;10.07;;
45434;SDS011;31183;47.404;8.500;2023-05-24T09:20:16;12.77;;;10.38;;
45434;SDS011;31183;47.404;8.500;2023-05-24T09:22:43;11.55;;;9.52;;
45434;SDS011;31183;47.404;8.500;2023-05-24T09:25:12;12.77;;;9.30;;
45434;SDS011;31183;47.404;8.500;2023-05-24T09:27:40;12.10;;;9.98;;
45434;SDS011;31183;47.404;8.500;2023-05-24T09:30:08;11.15;;;9.25;;
45434;SDS011;31183;47.404;8.500;2023-05-24T09:32:37;13.25;;;9.65;;
45434;SDS011;31183;47.404;8.500;2023-05-24T09:35:06;12.90;;;10.27;;
45434;SDS011;31183;47.404;8.500;2023-05-24T09:37:35;10.02;;;8.50;;
45434;SDS011;31183;47.404;8.500;2023-05-24T09:40:04;19.10;;;9.80;;
45434;SDS011;31183;47.404;8.500;2023-05-24T09:42:32;10.93;;;9.80;;
45434;SDS011;31183;47.404;8.500;2023-05-24T09:45:02;11.90;;;10.23;;
45434;SDS011;31183;47.404;8.500;2023-05-24T09:47:37;12.15;;;9.63;;
45434;SDS011;31183;47.404;8.500;2023-05-24T09:50:11;17.60;;;10.88;;
45434;SDS011;31183;47.404;8.500;2023-05-24T09:52:39;11.88;;;9.57;;
45434;SDS011;31183;47.404;8.500;2023-05-24T09:55:10;11.05;;;9.95;;
45434;SDS011;31183;47.404;8.500;2023-05-24T09:58:01;11.75;;;10.55;;
45434;SDS011;31183;47.404;8.500;2023-05-24T10:00:29;13.10;;;11.35;;
45434;SDS011;31183;47.404;8.500;2023-05-24T10:03:02;42.60;;;27.60;;
45434;SDS011;31183;47.404;8.500;2023-05-24T10:05:30;17.00;;;14.52;;
45434;SDS011;31183;47.404;8.500;2023-05-24T10:07:57;44.33;;;30.80;;
45434;SDS011;31183;47.404;8.500;2023-05-24T10:10:29;62.75;;;35.28;;
45434;SDS011;31183;47.404;8.500;2023-05-24T10:12:58;41.35;;;26.25;;
45434;SDS011;31183;47.404;8.500;2023-05-24T10:15:25;17.33;;;11.15;;
45434;SDS011;31183;47.404;8.500;2023-05-24T10:17:53;13.57;;;10.93;;
45434;SDS011;31183;47.404;8.500;2023-05-24T10:20:21;13.55;;;11.48;;
45434;SDS011;31183;47.404;8.500;2023-05-24T10:22:54;15.93;;;10.98;;
45434;SDS011;31183;47.404;8.500;2023-05-24T10:25:27;10.88;;;8.95;;
45434;SDS011;31183;47.404;8.500;2023-05-24T10:27:59;10.85;;;9.50;;
45434;SDS011;31183;47.404;8.500;2023-05-24T10:30:30;12.05;;;8.85;;
45434;SDS011;31183;47.404;8.500;2023-05-24T10:33:05;11.68;;;9.68;;
45434;SDS011;31183;47.404;8.500;2023-05-24T10:35:33;13.95;;;10.85;;
45434;SDS011;31183;47.404;8.500;2023-05-24T10:38:06;10.90;;;9.15;;
45434;SDS011;31183;47.404;8.500;2023-05-24T10:40:33;10.48;;;9.43;;
45434;SDS011;31183;47.404;8.500;2023-05-24T10:43:03;12.63;;;8.90;;
45434;SDS011;31183;47.404;8.500;2023-05-24T10:45:35;11.07;;;9.02;;
45434;SDS011;31183;47.404;8.500;2023-05-24T10:50:39;11.23;;;8.68;;
45434;SDS011;31183;47.404;8.500;2023-05-24T10:53:11;11.93;;;8.98;;
45434;SDS011;31183;47.404;8.500;2023-05-24T10:55:54;10.40;;;8.57;;
45434;SDS011;31183;47.404;8.500;2023-05-24T10:58:26;11.48;;;9.30;;
45434;SDS011;31183;47.404;8.500;2023-05-24T11:04:09;11.63;;;8.95;;
45434;SDS011;31183;47.404;8.500;2023-05-24T11:09:23;12.43;;;9.38;;
45434;SDS011;31183;47.404;8.500;2023-05-24T11:11:53;11.85;;;8.80;;
45434;SDS011;31183;47.404;8.500;2023-05-24T11:14:23;11.13;;;9.05;;
45434;SDS011;31183;47.404;8.500;2023-05-24T11:16:52;13.82;;;10.18;;
45434;SDS011;31183;47.404;8.500;2023-05-24T11:19:23;16.05;;;10.38;;
45434;SDS011;31183;47.404;8.500;2023-05-24T11:22:03;12.15;;;10.05;;
45434;SDS011;31183;47.404;8.500;2023-05-24T11:24:32;15.20;;;9.60;;
45434;SDS011;31183;47.404;8.500;2023-05-24T11:27:00;12.98;;;10.00;;
45434;SDS011;31183;47.404;8.500;2023-05-24T11:29:28;13.40;;;9.65;;
45434;SDS011;31183;47.404;8.500;2023-05-24T11:31:58;12.30;;;9.25;;
45434;SDS011;31183;47.404;8.500;2023-05-24T11:34:32;15.23;;;10.13;;
45434;SDS011;31183;47.404;8.500;2023-05-24T11:37:00;11.68;;;10.02;;
45434;SDS011;31183;47.404;8.500;2023-05-24T11:39:30;14.18;;;10.13;;
45434;SDS011;31183;47.404;8.500;2023-05-24T11:41:58;11.73;;;10.20;;
45434;SDS011;31183;47.404;8.500;2023-05-24T11:44:28;11.68;;;10.48;;
45434;SDS011;31183;47.404;8.500;2023-05-24T11:46:57;12.48;;;11.18;;
45434;SDS011;31183;47.404;8.500;2023-05-24T11:49:27;15.68;;;10.95;;
45434;SDS011;31183;47.404;8.500;2023-05-24T11:51:55;14.70;;;10.55;;
45434;SDS011;31183;47.404;8.500;2023-05-24T11:54:23;21.92;;;11.45;;
45434;SDS011;31183;47.404;8.500;2023-05-24T11:56:53;18.98;;;11.13;;
45434;SDS011;31183;47.404;8.500;2023-05-24T11:59:24;14.68;;;12.05;;
45434;SDS011;31183;47.404;8.500;2023-05-24T12:02:01;12.27;;;10.32;;
45434;SDS011;31183;47.404;8.500;2023-05-24T12:04:30;14.30;;;10.30;;
45434;SDS011;31183;47.404;8.500;2023-05-24T12:06:58;13.60;;;9.93;;
45434;SDS011;31183;47.404;8.500;2023-05-24T12:09:25;13.70;;;11.93;;
45434;SDS011;31183;47.404;8.500;2023-05-24T12:11:54;13.48;;;11.18;;
45434;SDS011;31183;47.404;8.500;2023-05-24T12:14:23;12.18;;;10.77;;
45434;SDS011;31183;47.404;8.500;2023-05-24T12:16:53;17.83;;;10.48;;
45434;SDS011;31183;47.404;8.500;2023-05-24T12:19:22;14.45;;;10.60;;
45434;SDS011;31183;47.404;8.500;2023-05-24T12:21:59;12.57;;;9.85;;
45434;SDS011;31183;47.404;8.500;2023-05-24T12:24:30;13.02;;;10.77;;
45434;SDS011;31183;47.404;8.500;2023-05-24T12:27:01;12.40;;;11.00;;
45434;SDS011;31183;47.404;8.500;2023-05-24T12:29:36;17.92;;;11.35;;
45434;SDS011;31183;47.404;8.500;2023-05-24T12:32:10;12.75;;;11.23;;
45434;SDS011;31183;47.404;8.500;2023-05-24T12:34:39;13.60;;;10.55;;
45434;SDS011;31183;47.404;8.500;2023-05-24T12:37:07;14.75;;;11.68;;
45434;SDS011;31183;47.404;8.500;2023-05-24T12:39:35;14.10;;;11.05;;
45434;SDS011;31183;47.404;8.500;2023-05-24T12:42:02;14.90;;;12.13;;
45434;SDS011;31183;47.404;8.500;2023-05-24T12:44:36;15.98;;;11.70;;
45434;SDS011;31183;47.404;8.500;2023-05-24T12:47:04;17.05;;;11.70;;
45434;SDS011;31183;47.404;8.500;2023-05-24T12:49:33;13.98;;;11.75;;
45434;SDS011;31183;47.404;8.500;2023-05-24T12:52:00;15.77;;;11.60;;
45434;SDS011;31183;47.404;8.500;2023-05-24T12:54:27;12.40;;;10.95;;
45434;SDS011;31183;47.404;8.500;2023-05-24T12:56:55;12.13;;;10.55;;
45434;SDS011;31183;47.404;8.500;2023-05-24T12:59:23;12.43;;;10.88;;
45434;SDS011;31183;47.404;8.500;2023-05-24T13:01:51;15.57;;;11.43;;
45434;SDS011;31183;47.404;8.500;2023-05-24T13:04:19;12.20;;;10.95;;
45434;SDS011;31183;47.404;8.500;2023-05-24T13:06:47;12.45;;;10.43;;
45434;SDS011;31183;47.404;8.500;2023-05-24T13:09:14;13.70;;;10.57;;
45434;SDS011;31183;47.404;8.500;2023-05-24T13:11:44;16.02;;;10.90;;
45434;SDS011;31183;47.404;8.500;2023-05-24T13:14:10;11.23;;;9.65;;
45434;SDS011;31183;47.404;8.500;2023-05-24T13:16:37;14.32;;;11.73;;
45434;SDS011;31183;47.404;8.500;2023-05-24T13:19:04;13.38;;;10.50;;
45434;SDS011;31183;47.404;8.500;2023-05-24T13:21:31;13.38;;;10.90;;
45434;SDS011;31183;47.404;8.500;2023-05-24T13:23:58;12.80;;;10.77;;
45434;SDS011;31183;47.404;8.500;2023-05-24T13:26:25;14.43;;;11.68;;
45434;SDS011;31183;47.404;8.500;2023-05-24T13:28:52;13.18;;;11.02;;
45434;SDS011;31183;47.404;8.500;2023-05-24T13:31:38;13.07;;;10.13;;
45434;SDS011;31183;47.404;8.500;2023-05-24T13:34:06;14.13;;;10.45;;
45434;SDS011;31183;47.404;8.500;2023-05-24T13:36:35;10.95;;;9.85;;
45434;SDS011;31183;47.404;8.500;2023-05-24T13:39:03;13.05;;;11.02;;
45434;SDS011;31183;47.404;8.500;2023-05-24T13:41:32;16.95;;;10.15;;
45434;SDS011;31183;47.404;8.500;2023-05-24T13:44:00;11.40;;;9.18;;
45434;SDS011;31183;47.404;8.500;2023-05-24T13:46:27;12.63;;;10.32;;
45434;SDS011;31183;47.404;8.500;2023-05-24T13:48:54;17.98;;;11.00;;
45434;SDS011;31183;47.404;8.500;2023-05-24T13:51:22;18.27;;;10.93;;
45434;SDS011;31183;47.404;8.500;2023-05-24T13:53:49;13.43;;;11.27;;
45434;SDS011;31183;47.404;8.500;2023-05-24T13:56:15;10.90;;;9.35;;
45434;SDS011;31183;47.404;8.500;2023-05-24T13:58:42;14.50;;;10.48;;
45434;SDS011;31183;47.404;8.500;2023-05-24T14:01:09;16.63;;;9.63;;
45434;SDS011;31183;47.404;8.500;2023-05-24T14:03:36;9.27;;;8.32;;
45434;SDS011;31183;47.404;8.500;2023-05-24T14:06:05;13.50;;;9.07;;
45434;SDS011;31183;47.404;8.500;2023-05-24T14:08:33;15.18;;;10.43;;
45434;SDS011;31183;47.404;8.500;2023-05-24T14:10:59;14.25;;;9.32;;
45434;SDS011;31183;47.404;8.500;2023-05-24T14:13:26;11.57;;;8.50;;
45434;SDS011;31183;47.404;8.500;2023-05-24T14:15:56;12.40;;;9.52;;
45434;SDS011;31183;47.404;8.500;2023-05-24T14:18:22;16.88;;;9.05;;
45434;SDS011;31183;47.404;8.500;2023-05-24T14:20:49;10.70;;;9.60;;
45434;SDS011;31183;47.404;8.500;2023-05-24T14:23:16;13.60;;;10.00;;
45434;SDS011;31183;47.404;8.500;2023-05-24T14:25:43;13.85;;;8.68;;
45434;SDS011;31183;47.404;8.500;2023-05-24T14:28:12;15.23;;;10.00;;
45434;SDS011;31183;47.404;8.500;2023-05-24T14:30:38;15.55;;;10.32;;
45434;SDS011;31183;47.404;8.500;2023-05-24T14:33:05;12.30;;;9.40;;
45434;SDS011;31183;47.404;8.500;2023-05-24T14:35:33;16.67;;;9.73;;
45434;SDS011;31183;47.404;8.500;2023-05-24T14:38:06;14.25;;;9.30;;
45434;SDS011;31183;47.404;8.500;2023-05-24T14:40:35;14.18;;;9.40;;
45434;SDS011;31183;47.404;8.500;2023-05-24T14:43:04;15.15;;;10.10;;
45434;SDS011;31183;47.404;8.500;2023-05-24T14:45:32;14.27;;;9.30;;
45434;SDS011;31183;47.404;8.500;2023-05-24T14:47:58;11.55;;;9.77;;